sensor_id;sensor_type;location;lat;lon;timestamp;P1;durP1;ratioP1;P2;durP2;ratioP2
10667;SDS011;5382;42.136;24.796;2023-05-13T00:00:36;4.22;;;2.05;;
10667;SDS011;5382;42.136;24.796;2023-05-13T00:03:03;2.28;;;1.60;;
10667;SDS011;5382;42.136;24.796;2023-05-13T00:05:30;2.10;;;1.75;;
10667;SDS011;5382;42.136;24.796;2023-05-13T00:07:56;2.80;;;1.70;;
10667;SDS011;5382;42.136;24.796;2023-05-13T00:10:26;3.20;;;1.83;;
10667;SDS011;5382;42.136;24.796;2023-05-13T00:12:54;3.88;;;1.77;;
10667;SDS011;5382;42.136;24.796;2023-05-13T00:15:21;2.00;;;1.50;;
10667;SDS011;5382;42.136;24.796;2023-05-13T00:17:47;2.70;;;1.33;;
10667;SDS011;5382;42.136;24.796;2023-05-13T00:20:14;2.63;;;1.90;;
10667;SDS011;5382;42.136;24.796;2023-05-13T00:22:41;2.38;;;1.73;;
10667;SDS011;5382;42.136;24.796;2023-05-13T00:25:08;3.67;;;2.25;;
10667;SDS011;5382;42.136;24.796;2023-05-13T00:27:35;1.42;;;1.30;;
10667;SDS011;5382;42.136;24.796;2023-05-13T00:30:03;1.70;;;1.60;;
10667;SDS011;5382;42.136;24.796;2023-05-13T00:32:31;1.63;;;1.42;;
10667;SDS011;5382;42.136;24.796;2023-05-13T00:34:58;1.83;;;1.50;;
10667;SDS011;5382;42.136;24.796;2023-05-13T00:37:24;2.70;;;1.80;;
10667;SDS011;5382;42.136;24.796;2023-05-13T00:39:51;2.00;;;1.25;;
10667;SDS011;5382;42.136;24.796;2023-05-13T00:42:18;3.38;;;1.60;;
10667;SDS011;5382;42.136;24.796;2023-05-13T00:44:45;2.75;;;1.75;;
10667;SDS011;5382;42.136;24.796;2023-05-13T00:47:13;4.28;;;1.73;;
10667;SDS011;5382;42.136;24.796;2023-05-13T00:49:42;2.75;;;2.08;;
10667;SDS011;5382;42.136;24.796;2023-05-13T00:52:09;1.30;;;1.20;;
10667;SDS011;5382;42.136;24.796;2023-05-13T00:54:36;4.53;;;2.10;;
10667;SDS011;5382;42.136;24.796;2023-05-13T00:57:03;4.80;;;2.10;;
10667;SDS011;5382;42.136;24.796;2023-05-13T00:59:30;3.65;;;1.90;;
10667;SDS011;5382;42.136;24.796;2023-05-13T01:01:59;5.75;;;1.92;;
10667;SDS011;5382;42.136;24.796;2023-05-13T01:04:35;5.05;;;2.42;;
10667;SDS011;5382;42.136;24.796;2023-05-13T01:07:08;4.35;;;1.95;;
10667;SDS011;5382;42.136;24.796;2023-05-13T01:09:42;2.88;;;2.10;;
10667;SDS011;5382;42.136;24.796;2023-05-13T01:12:20;4.45;;;2.20;;
10667;SDS011;5382;42.136;24.796;2023-05-13T01:14:53;2.92;;;2.33;;
10667;SDS011;5382;42.136;24.796;2023-05-13T01:17:31;4.57;;;2.45;;
10667;SDS011;5382;42.136;24.796;2023-05-13T01:20:02;3.47;;;2.30;;
10667;SDS011;5382;42.136;24.796;2023-05-13T01:22:31;4.68;;;2.50;;
10667;SDS011;5382;42.136;24.796;2023-05-13T01:24:58;5.05;;;2.65;;
10667;SDS011;5382;42.136;24.796;2023-05-13T01:27:25;4.57;;;2.30;;
10667;SDS011;5382;42.136;24.796;2023-05-13T01:29:52;2.70;;;2.20;;
10667;SDS011;5382;42.136;24.796;2023-05-13T01:32:20;2.25;;;2.00;;
10667;SDS011;5382;42.136;24.796;2023-05-13T01:34:48;4.90;;;2.78;;
10667;SDS011;5382;42.136;24.796;2023-05-13T01:37:17;3.92;;;2.13;;
10667;SDS011;5382;42.136;24.796;2023-05-13T01:39:45;4.65;;;2.50;;
10667;SDS011;5382;42.136;24.796;2023-05-13T01:42:12;4.85;;;2.55;;
10667;SDS011;5382;42.136;24.796;2023-05-13T01:44:39;5.13;;;2.63;;
10667;SDS011;5382;42.136;24.796;2023-05-13T01:47:06;8.30;;;2.65;;
10667;SDS011;5382;42.136;24.796;2023-05-13T01:49:33;3.78;;;2.20;;
10667;SDS011;5382;42.136;24.796;2023-05-13T01:51:59;3.92;;;2.72;;
10667;SDS011;5382;42.136;24.796;2023-05-13T01:54:28;4.85;;;2.47;;
10667;SDS011;5382;42.136;24.796;2023-05-13T01:56:56;4.10;;;2.38;;
10667;SDS011;5382;42.136;24.796;2023-05-13T01:59:23;5.43;;;2.30;;
10667;SDS011;5382;42.136;24.796;2023-05-13T02:01:50;6.82;;;2.47;;
10667;SDS011;5382;42.136;24.796;2023-05-13T02:04:16;4.53;;;2.75;;
10667;SDS011;5382;42.136;24.796;2023-05-13T02:06:43;4.72;;;2.70;;
10667;SDS011;5382;42.136;24.796;2023-05-13T02:09:10;4.88;;;2.55;;
10667;SDS011;5382;42.136;24.796;2023-05-13T02:11:37;7.22;;;3.28;;
10667;SDS011;5382;42.136;24.796;2023-05-13T02:14:05;4.72;;;2.90;;
10667;SDS011;5382;42.136;24.796;2023-05-13T02:16:32;5.22;;;3.03;;
10667;SDS011;5382;42.136;24.796;2023-05-13T02:18:59;2.83;;;2.10;;
10667;SDS011;5382;42.136;24.796;2023-05-13T02:21:25;3.05;;;2.20;;
10667;SDS011;5382;42.136;24.796;2023-05-13T02:23:52;3.88;;;2.40;;
10667;SDS011;5382;42.136;24.796;2023-05-13T02:26:19;5.35;;;2.33;;
10667;SDS011;5382;42.136;24.796;2023-05-13T02:28:46;8.20;;;3.13;;
10667;SDS011;5382;42.136;24.796;2023-05-13T02:31:14;4.57;;;2.75;;
10667;SDS011;5382;42.136;24.796;2023-05-13T02:33:41;4.80;;;2.90;;
10667;SDS011;5382;42.136;24.796;2023-05-13T02:36:08;4.90;;;2.70;;
10667;SDS011;5382;42.136;24.796;2023-05-13T02:38:35;4.88;;;2.72;;
10667;SDS011;5382;42.136;24.796;2023-05-13T02:41:01;5.07;;;2.95;;
10667;SDS011;5382;42.136;24.796;2023-05-13T02:43:28;4.65;;;3.00;;
10667;SDS011;5382;42.136;24.796;2023-05-13T02:45:55;7.28;;;2.97;;
10667;SDS011;5382;42.136;24.796;2023-05-13T02:48:23;4.65;;;2.75;;
10667;SDS011;5382;42.136;24.796;2023-05-13T02:50:50;3.88;;;2.25;;
10667;SDS011;5382;42.136;24.796;2023-05-13T02:53:16;7.88;;;2.88;;
10667;SDS011;5382;42.136;24.796;2023-05-13T02:55:43;6.05;;;2.63;;
10667;SDS011;5382;42.136;24.796;2023-05-13T02:58:10;3.40;;;2.72;;
10667;SDS011;5382;42.136;24.796;2023-05-13T03:00:37;6.55;;;3.13;;
10667;SDS011;5382;42.136;24.796;2023-05-13T03:03:04;4.10;;;2.75;;
10667;SDS011;5382;42.136;24.796;2023-05-13T03:05:32;4.28;;;2.67;;
10667;SDS011;5382;42.136;24.796;2023-05-13T03:07:59;6.90;;;3.30;;
10667;SDS011;5382;42.136;24.796;2023-05-13T03:10:26;4.88;;;3.22;;
10667;SDS011;5382;42.136;24.796;2023-05-13T03:12:53;4.45;;;3.40;;
10667;SDS011;5382;42.136;24.796;2023-05-13T03:15:20;5.75;;;3.60;;
10667;SDS011;5382;42.136;24.796;2023-05-13T03:17:47;7.78;;;3.60;;
10667;SDS011;5382;42.136;24.796;2023-05-13T03:20:14;7.65;;;3.22;;
10667;SDS011;5382;42.136;24.796;2023-05-13T03:22:42;7.93;;;3.38;;
10667;SDS011;5382;42.136;24.796;2023-05-13T03:25:09;6.13;;;3.22;;
10667;SDS011;5382;42.136;24.796;2023-05-13T03:27:36;6.10;;;3.00;;
10667;SDS011;5382;42.136;24.796;2023-05-13T03:30:04;9.77;;;4.30;;
10667;SDS011;5382;42.136;24.796;2023-05-13T03:32:31;6.35;;;4.20;;
10667;SDS011;5382;42.136;24.796;2023-05-13T03:34:58;10.18;;;3.72;;
10667;SDS011;5382;42.136;24.796;2023-05-13T03:37:26;7.53;;;4.20;;
10667;SDS011;5382;42.136;24.796;2023-05-13T03:39:54;6.43;;;3.03;;
10667;SDS011;5382;42.136;24.796;2023-05-13T03:42:20;6.85;;;4.20;;
10667;SDS011;5382;42.136;24.796;2023-05-13T03:44:48;10.65;;;4.03;;
10667;SDS011;5382;42.136;24.796;2023-05-13T03:47:15;6.82;;;3.78;;
10667;SDS011;5382;42.136;24.796;2023-05-13T03:49:42;7.65;;;3.85;;
10667;SDS011;5382;42.136;24.796;2023-05-13T03:52:08;5.05;;;4.18;;
10667;SDS011;5382;42.136;24.796;2023-05-13T03:54:35;5.38;;;3.45;;
10667;SDS011;5382;42.136;24.796;2023-05-13T03:57:04;18.98;;;4.13;;
10667;SDS011;5382;42.136;24.796;2023-05-13T03:59:32;10.18;;;3.92;;
10667;SDS011;5382;42.136;24.796;2023-05-13T04:01:58;11.30;;;3.63;;
10667;SDS011;5382;42.136;24.796;2023-05-13T04:04:25;3.95;;;3.40;;
10667;SDS011;5382;42.136;24.796;2023-05-13T04:06:52;7.15;;;3.45;;
10667;SDS011;5382;42.136;24.796;2023-05-13T04:09:21;8.07;;;3.45;;
10667;SDS011;5382;42.136;24.796;2023-05-13T04:11:48;5.18;;;4.28;;
10667;SDS011;5382;42.136;24.796;2023-05-13T04:14:16;5.13;;;3.42;;
10667;SDS011;5382;42.136;24.796;2023-05-13T04:16:43;3.90;;;3.00;;
10667;SDS011;5382;42.136;24.796;2023-05-13T04:19:10;5.70;;;3.58;;
10667;SDS011;5382;42.136;24.796;2023-05-13T04:21:36;4.13;;;2.80;;
10667;SDS011;5382;42.136;24.796;2023-05-13T04:24:03;4.85;;;3.53;;
10667;SDS011;5382;42.136;24.796;2023-05-13T04:26:31;5.72;;;3.22;;
10667;SDS011;5382;42.136;24.796;2023-05-13T04:28:57;5.45;;;3.30;;
10667;SDS011;5382;42.136;24.796;2023-05-13T04:31:26;4.95;;;3.20;;
10667;SDS011;5382;42.136;24.796;2023-05-13T04:33:52;6.47;;;3.20;;
10667;SDS011;5382;42.136;24.796;2023-05-13T04:36:19;4.70;;;3.30;;
10667;SDS011;5382;42.136;24.796;2023-05-13T04:38:46;12.20;;;3.35;;
10667;SDS011;5382;42.136;24.796;2023-05-13T04:41:13;7.22;;;3.40;;
10667;SDS011;5382;42.136;24.796;2023-05-13T04:43:39;7.32;;;3.45;;
10667;SDS011;5382;42.136;24.796;2023-05-13T04:46:06;6.50;;;4.55;;
10667;SDS011;5382;42.136;24.796;2023-05-13T04:48:34;6.95;;;3.83;;
10667;SDS011;5382;42.136;24.796;2023-05-13T04:51:01;8.05;;;4.40;;
10667;SDS011;5382;42.136;24.796;2023-05-13T04:53:28;7.97;;;4.30;;
10667;SDS011;5382;42.136;24.796;2023-05-13T04:55:55;8.65;;;4.57;;
10667;SDS011;5382;42.136;24.796;2023-05-13T04:58:25;7.45;;;4.15;;
10667;SDS011;5382;42.136;24.796;2023-05-13T05:00:52;7.70;;;4.38;;
10667;SDS011;5382;42.136;24.796;2023-05-13T05:03:19;8.38;;;4.80;;
10667;SDS011;5382;42.136;24.796;2023-05-13T05:05:47;7.90;;;5.00;;
10667;SDS011;5382;42.136;24.796;2023-05-13T05:08:14;9.10;;;5.30;;
10667;SDS011;5382;42.136;24.796;2023-05-13T05:10:41;10.60;;;5.03;;
10667;SDS011;5382;42.136;24.796;2023-05-13T05:13:08;5.70;;;4.50;;
10667;SDS011;5382;42.136;24.796;2023-05-13T05:15:35;6.65;;;4.13;;
10667;SDS011;5382;42.136;24.796;2023-05-13T05:18:02;4.40;;;3.35;;
10667;SDS011;5382;42.136;24.796;2023-05-13T05:20:30;6.10;;;4.75;;
10667;SDS011;5382;42.136;24.796;2023-05-13T05:22:58;6.53;;;5.15;;
10667;SDS011;5382;42.136;24.796;2023-05-13T05:25:25;7.80;;;4.90;;
10667;SDS011;5382;42.136;24.796;2023-05-13T05:27:52;6.55;;;4.18;;
10667;SDS011;5382;42.136;24.796;2023-05-13T05:30:19;6.35;;;4.18;;
10667;SDS011;5382;42.136;24.796;2023-05-13T05:32:46;8.15;;;4.70;;
10667;SDS011;5382;42.136;24.796;2023-05-13T05:35:13;4.85;;;3.25;;
10667;SDS011;5382;42.136;24.796;2023-05-13T05:37:43;5.95;;;4.53;;
10667;SDS011;5382;42.136;24.796;2023-05-13T05:40:12;9.10;;;4.35;;
10667;SDS011;5382;42.136;24.796;2023-05-13T05:42:39;7.03;;;4.18;;
10667;SDS011;5382;42.136;24.796;2023-05-13T05:45:06;4.93;;;3.53;;
10667;SDS011;5382;42.136;24.796;2023-05-13T05:47:33;5.57;;;3.05;;
10667;SDS011;5382;42.136;24.796;2023-05-13T05:50:00;10.52;;;4.82;;
10667;SDS011;5382;42.136;24.796;2023-05-13T05:52:27;10.43;;;3.95;;
10667;SDS011;5382;42.136;24.796;2023-05-13T05:54:54;4.40;;;2.58;;
10667;SDS011;5382;42.136;24.796;2023-05-13T05:57:22;6.13;;;3.10;;
10667;SDS011;5382;42.136;24.796;2023-05-13T05:59:49;5.85;;;3.38;;
10667;SDS011;5382;42.136;24.796;2023-05-13T06:02:16;7.28;;;3.28;;
10667;SDS011;5382;42.136;24.796;2023-05-13T06:04:43;7.30;;;3.45;;
10667;SDS011;5382;42.136;24.796;2023-05-13T06:07:09;6.20;;;3.28;;
10667;SDS011;5382;42.136;24.796;2023-05-13T06:09:37;3.50;;;3.08;;
10667;SDS011;5382;42.136;24.796;2023-05-13T06:12:04;10.70;;;3.50;;
10667;SDS011;5382;42.136;24.796;2023-05-13T06:14:33;5.68;;;3.60;;
10667;SDS011;5382;42.136;24.796;2023-05-13T06:17:00;6.07;;;4.10;;
10667;SDS011;5382;42.136;24.796;2023-05-13T06:19:27;6.28;;;3.33;;
10667;SDS011;5382;42.136;24.796;2023-05-13T06:21:54;10.38;;;3.70;;
10667;SDS011;5382;42.136;24.796;2023-05-13T06:24:21;5.13;;;3.65;;
10667;SDS011;5382;42.136;24.796;2023-05-13T06:26:47;5.30;;;4.05;;
10667;SDS011;5382;42.136;24.796;2023-05-13T06:29:14;5.40;;;3.70;;
10667;SDS011;5382;42.136;24.796;2023-05-13T06:31:43;5.80;;;3.00;;
10667;SDS011;5382;42.136;24.796;2023-05-13T06:34:09;4.07;;;3.60;;
10667;SDS011;5382;42.136;24.796;2023-05-13T06:36:41;5.28;;;3.42;;
10667;SDS011;5382;42.136;24.796;2023-05-13T06:39:08;6.72;;;3.60;;
10667;SDS011;5382;42.136;24.796;2023-05-13T06:41:35;6.22;;;3.40;;
10667;SDS011;5382;42.136;24.796;2023-05-13T06:44:02;8.07;;;3.65;;
10667;SDS011;5382;42.136;24.796;2023-05-13T06:46:30;5.43;;;3.25;;
10667;SDS011;5382;42.136;24.796;2023-05-13T06:48:59;5.40;;;3.45;;
10667;SDS011;5382;42.136;24.796;2023-05-13T06:51:26;5.80;;;3.60;;
10667;SDS011;5382;42.136;24.796;2023-05-13T06:53:52;5.25;;;3.13;;
10667;SDS011;5382;42.136;24.796;2023-05-13T06:56:20;6.47;;;3.13;;
10667;SDS011;5382;42.136;24.796;2023-05-13T06:58:47;5.07;;;3.38;;
10667;SDS011;5382;42.136;24.796;2023-05-13T07:01:14;4.45;;;3.33;;
10667;SDS011;5382;42.136;24.796;2023-05-13T07:03:41;5.55;;;3.53;;
10667;SDS011;5382;42.136;24.796;2023-05-13T07:06:09;4.68;;;3.30;;
10667;SDS011;5382;42.136;24.796;2023-05-13T07:08:36;5.50;;;3.33;;
10667;SDS011;5382;42.136;24.796;2023-05-13T07:11:04;4.20;;;3.00;;
10667;SDS011;5382;42.136;24.796;2023-05-13T07:13:31;5.63;;;3.55;;
10667;SDS011;5382;42.136;24.796;2023-05-13T07:15:59;3.92;;;3.40;;
10667;SDS011;5382;42.136;24.796;2023-05-13T07:18:26;8.43;;;3.45;;
10667;SDS011;5382;42.136;24.796;2023-05-13T07:20:53;4.57;;;3.10;;
10667;SDS011;5382;42.136;24.796;2023-05-13T07:23:21;4.55;;;2.90;;
10667;SDS011;5382;42.136;24.796;2023-05-13T07:25:48;11.98;;;3.47;;
10667;SDS011;5382;42.136;24.796;2023-05-13T07:28:16;7.70;;;3.67;;
10667;SDS011;5382;42.136;24.796;2023-05-13T07:30:43;6.00;;;3.40;;
10667;SDS011;5382;42.136;24.796;2023-05-13T07:33:10;4.70;;;3.22;;
10667;SDS011;5382;42.136;24.796;2023-05-13T07:35:37;4.85;;;3.30;;
10667;SDS011;5382;42.136;24.796;2023-05-13T07:38:06;5.25;;;3.50;;
10667;SDS011;5382;42.136;24.796;2023-05-13T07:40:37;5.22;;;3.85;;
10667;SDS011;5382;42.136;24.796;2023-05-13T07:43:04;5.85;;;3.28;;
10667;SDS011;5382;42.136;24.796;2023-05-13T07:45:31;8.20;;;3.60;;
10667;SDS011;5382;42.136;24.796;2023-05-13T07:47:58;8.20;;;4.10;;
10667;SDS011;5382;42.136;24.796;2023-05-13T07:50:25;4.95;;;3.03;;
10667;SDS011;5382;42.136;24.796;2023-05-13T07:52:51;4.68;;;3.40;;
10667;SDS011;5382;42.136;24.796;2023-05-13T07:55:18;5.10;;;3.22;;
10667;SDS011;5382;42.136;24.796;2023-05-13T07:57:47;4.47;;;3.00;;
10667;SDS011;5382;42.136;24.796;2023-05-13T08:00:14;6.32;;;2.97;;
10667;SDS011;5382;42.136;24.796;2023-05-13T08:02:41;3.60;;;2.40;;
10667;SDS011;5382;42.136;24.796;2023-05-13T08:05:08;5.72;;;2.78;;
10667;SDS011;5382;42.136;24.796;2023-05-13T08:07:36;6.88;;;3.15;;
10667;SDS011;5382;42.136;24.796;2023-05-13T08:10:03;2.67;;;2.15;;
10667;SDS011;5382;42.136;24.796;2023-05-13T08:12:31;2.97;;;1.75;;
10667;SDS011;5382;42.136;24.796;2023-05-13T08:15:00;3.70;;;2.25;;
10667;SDS011;5382;42.136;24.796;2023-05-13T08:17:28;3.30;;;2.65;;
10667;SDS011;5382;42.136;24.796;2023-05-13T08:19:55;6.13;;;2.10;;
10667;SDS011;5382;42.136;24.796;2023-05-13T08:22:22;7.60;;;2.92;;
10667;SDS011;5382;42.136;24.796;2023-05-13T08:24:49;3.75;;;1.92;;
10667;SDS011;5382;42.136;24.796;2023-05-13T08:27:16;6.20;;;1.90;;
10667;SDS011;5382;42.136;24.796;2023-05-13T08:29:42;3.70;;;1.80;;
10667;SDS011;5382;42.136;24.796;2023-05-13T08:32:11;2.03;;;1.70;;
10667;SDS011;5382;42.136;24.796;2023-05-13T08:34:37;4.03;;;1.80;;
10667;SDS011;5382;42.136;24.796;2023-05-13T08:37:05;6.03;;;2.03;;
10667;SDS011;5382;42.136;24.796;2023-05-13T08:39:32;2.70;;;1.90;;
10667;SDS011;5382;42.136;24.796;2023-05-13T08:41:58;4.03;;;1.92;;
10667;SDS011;5382;42.136;24.796;2023-05-13T08:44:28;1.90;;;1.70;;
10667;SDS011;5382;42.136;24.796;2023-05-13T08:46:59;3.80;;;1.75;;
10667;SDS011;5382;42.136;24.796;2023-05-13T08:49:34;2.67;;;1.80;;
10667;SDS011;5382;42.136;24.796;2023-05-13T08:52:01;9.10;;;1.80;;
10667;SDS011;5382;42.136;24.796;2023-05-13T08:54:28;5.00;;;2.05;;
10667;SDS011;5382;42.136;24.796;2023-05-13T08:56:57;2.70;;;1.85;;
10667;SDS011;5382;42.136;24.796;2023-05-13T08:59:24;3.67;;;1.70;;
10667;SDS011;5382;42.136;24.796;2023-05-13T09:01:51;4.40;;;1.80;;
10667;SDS011;5382;42.136;24.796;2023-05-13T09:04:19;2.97;;;1.50;;
10667;SDS011;5382;42.136;24.796;2023-05-13T09:06:47;2.15;;;1.60;;
10667;SDS011;5382;42.136;24.796;2023-05-13T09:09:14;4.45;;;1.52;;
10667;SDS011;5382;42.136;24.796;2023-05-13T09:11:41;3.97;;;1.95;;
10667;SDS011;5382;42.136;24.796;2023-05-13T09:14:08;4.32;;;1.95;;
10667;SDS011;5382;42.136;24.796;2023-05-13T09:16:36;3.38;;;1.58;;
10667;SDS011;5382;42.136;24.796;2023-05-13T09:19:04;2.00;;;1.90;;
10667;SDS011;5382;42.136;24.796;2023-05-13T09:21:32;3.67;;;2.20;;
10667;SDS011;5382;42.136;24.796;2023-05-13T09:24:09;2.90;;;2.10;;
10667;SDS011;5382;42.136;24.796;2023-05-13T09:26:37;4.38;;;2.30;;
10667;SDS011;5382;42.136;24.796;2023-05-13T09:29:14;3.60;;;2.17;;
10667;SDS011;5382;42.136;24.796;2023-05-13T09:31:42;4.60;;;2.00;;
10667;SDS011;5382;42.136;24.796;2023-05-13T09:34:09;3.92;;;2.20;;
10667;SDS011;5382;42.136;24.796;2023-05-13T09:36:36;4.78;;;1.95;;
10667;SDS011;5382;42.136;24.796;2023-05-13T09:39:03;2.47;;;1.60;;
10667;SDS011;5382;42.136;24.796;2023-05-13T09:41:32;3.05;;;1.80;;
10667;SDS011;5382;42.136;24.796;2023-05-13T09:44:00;3.05;;;1.80;;
10667;SDS011;5382;42.136;24.796;2023-05-13T09:46:29;4.40;;;2.20;;
10667;SDS011;5382;42.136;24.796;2023-05-13T09:48:57;3.13;;;1.80;;
10667;SDS011;5382;42.136;24.796;2023-05-13T09:51:24;5.97;;;1.88;;
10667;SDS011;5382;42.136;24.796;2023-05-13T09:53:52;2.97;;;1.40;;
10667;SDS011;5382;42.136;24.796;2023-05-13T09:56:21;3.75;;;2.00;;
10667;SDS011;5382;42.136;24.796;2023-05-13T09:58:54;4.80;;;1.90;;
10667;SDS011;5382;42.136;24.796;2023-05-13T10:01:20;5.32;;;2.15;;
10667;SDS011;5382;42.136;24.796;2023-05-13T10:03:48;5.45;;;1.83;;
10667;SDS011;5382;42.136;24.796;2023-05-13T10:06:15;4.32;;;2.22;;
10667;SDS011;5382;42.136;24.796;2023-05-13T10:08:43;3.85;;;2.35;;
10667;SDS011;5382;42.136;24.796;2023-05-13T10:11:12;3.60;;;1.60;;
10667;SDS011;5382;42.136;24.796;2023-05-13T10:13:41;5.95;;;2.78;;
10667;SDS011;5382;42.136;24.796;2023-05-13T10:16:13;2.65;;;1.80;;
10667;SDS011;5382;42.136;24.796;2023-05-13T10:18:40;2.97;;;1.60;;
10667;SDS011;5382;42.136;24.796;2023-05-13T10:21:08;4.20;;;1.85;;
10667;SDS011;5382;42.136;24.796;2023-05-13T10:23:35;4.20;;;2.63;;
10667;SDS011;5382;42.136;24.796;2023-05-13T10:26:02;3.45;;;1.65;;
10667;SDS011;5382;42.136;24.796;2023-05-13T10:28:30;3.15;;;2.00;;
10667;SDS011;5382;42.136;24.796;2023-05-13T10:30:57;3.53;;;2.00;;
10667;SDS011;5382;42.136;24.796;2023-05-13T10:33:26;3.58;;;1.50;;
10667;SDS011;5382;42.136;24.796;2023-05-13T10:35:57;4.07;;;1.83;;
10667;SDS011;5382;42.136;24.796;2023-05-13T10:38:35;25.33;;;12.27;;
10667;SDS011;5382;42.136;24.796;2023-05-13T10:41:21;2.65;;;1.67;;
10667;SDS011;5382;42.136;24.796;2023-05-13T10:44:04;4.60;;;2.20;;
10667;SDS011;5382;42.136;24.796;2023-05-13T10:46:32;2.50;;;1.67;;
10667;SDS011;5382;42.136;24.796;2023-05-13T10:49:04;3.70;;;1.58;;
10667;SDS011;5382;42.136;24.796;2023-05-13T10:51:38;3.67;;;1.42;;
10667;SDS011;5382;42.136;24.796;2023-05-13T10:54:16;3.10;;;1.63;;
10667;SDS011;5382;42.136;24.796;2023-05-13T10:56:44;4.28;;;1.40;;
10667;SDS011;5382;42.136;24.796;2023-05-13T10:59:11;5.93;;;1.60;;
10667;SDS011;5382;42.136;24.796;2023-05-13T11:01:38;3.80;;;2.05;;
10667;SDS011;5382;42.136;24.796;2023-05-13T11:04:12;2.42;;;1.48;;
10667;SDS011;5382;42.136;24.796;2023-05-13T11:06:42;1.88;;;1.52;;
10667;SDS011;5382;42.136;24.796;2023-05-13T11:09:11;4.25;;;1.80;;
10667;SDS011;5382;42.136;24.796;2023-05-13T11:11:38;1.50;;;1.40;;
10667;SDS011;5382;42.136;24.796;2023-05-13T11:14:07;2.40;;;1.65;;
10667;SDS011;5382;42.136;24.796;2023-05-13T11:16:43;4.43;;;1.95;;
10667;SDS011;5382;42.136;24.796;2023-05-13T11:19:19;6.93;;;1.75;;
10667;SDS011;5382;42.136;24.796;2023-05-13T11:21:48;2.95;;;1.75;;
10667;SDS011;5382;42.136;24.796;2023-05-13T11:24:17;3.53;;;1.85;;
10667;SDS011;5382;42.136;24.796;2023-05-13T11:26:46;3.25;;;1.65;;
10667;SDS011;5382;42.136;24.796;2023-05-13T11:29:14;2.22;;;1.55;;
10667;SDS011;5382;42.136;24.796;2023-05-13T11:31:52;2.40;;;1.75;;
10667;SDS011;5382;42.136;24.796;2023-05-13T11:34:22;2.13;;;1.50;;
10667;SDS011;5382;42.136;24.796;2023-05-13T11:36:55;4.78;;;1.63;;
10667;SDS011;5382;42.136;24.796;2023-05-13T11:39:23;1.75;;;1.50;;
10667;SDS011;5382;42.136;24.796;2023-05-13T11:41:52;6.80;;;1.50;;
10667;SDS011;5382;42.136;24.796;2023-05-13T11:44:22;2.17;;;1.50;;
10667;SDS011;5382;42.136;24.796;2023-05-13T11:46:50;1.70;;;1.55;;
10667;SDS011;5382;42.136;24.796;2023-05-13T11:49:30;2.00;;;1.40;;
10667;SDS011;5382;42.136;24.796;2023-05-13T11:51:58;11.02;;;1.92;;
10667;SDS011;5382;42.136;24.796;2023-05-13T11:54:26;3.55;;;1.67;;
10667;SDS011;5382;42.136;24.796;2023-05-13T11:56:53;1.73;;;1.27;;
10667;SDS011;5382;42.136;24.796;2023-05-13T11:59:19;5.18;;;1.65;;
10667;SDS011;5382;42.136;24.796;2023-05-13T12:01:56;5.38;;;1.50;;
10667;SDS011;5382;42.136;24.796;2023-05-13T12:04:26;2.33;;;1.60;;
10667;SDS011;5382;42.136;24.796;2023-05-13T12:06:55;2.08;;;1.50;;
10667;SDS011;5382;42.136;24.796;2023-05-13T12:09:22;7.65;;;1.55;;
10667;SDS011;5382;42.136;24.796;2023-05-13T12:11:49;6.05;;;1.90;;
10667;SDS011;5382;42.136;24.796;2023-05-13T12:14:16;3.22;;;1.60;;
10667;SDS011;5382;42.136;24.796;2023-05-13T12:16:44;2.67;;;1.58;;
10667;SDS011;5382;42.136;24.796;2023-05-13T12:19:11;16.60;;;2.35;;
10667;SDS011;5382;42.136;24.796;2023-05-13T12:21:38;5.25;;;2.03;;
10667;SDS011;5382;42.136;24.796;2023-05-13T12:24:16;1.70;;;1.60;;
10667;SDS011;5382;42.136;24.796;2023-05-13T12:26:45;2.33;;;1.50;;
10667;SDS011;5382;42.136;24.796;2023-05-13T12:29:12;13.48;;;2.40;;
10667;SDS011;5382;42.136;24.796;2023-05-13T12:31:40;2.05;;;1.50;;
10667;SDS011;5382;42.136;24.796;2023-05-13T12:34:08;5.85;;;1.60;;
10667;SDS011;5382;42.136;24.796;2023-05-13T12:36:35;5.10;;;1.50;;
10667;SDS011;5382;42.136;24.796;2023-05-13T12:39:04;1.92;;;1.45;;
10667;SDS011;5382;42.136;24.796;2023-05-13T12:41:35;1.85;;;1.65;;
10667;SDS011;5382;42.136;24.796;2023-05-13T12:44:03;3.60;;;1.85;;
10667;SDS011;5382;42.136;24.796;2023-05-13T12:46:33;5.50;;;2.03;;
10667;SDS011;5382;42.136;24.796;2023-05-13T12:49:01;3.05;;;1.80;;
10667;SDS011;5382;42.136;24.796;2023-05-13T12:51:28;5.43;;;1.60;;
10667;SDS011;5382;42.136;24.796;2023-05-13T12:53:57;4.90;;;2.38;;
10667;SDS011;5382;42.136;24.796;2023-05-13T12:56:24;5.35;;;1.40;;
10667;SDS011;5382;42.136;24.796;2023-05-13T12:58:53;3.17;;;1.80;;
10667;SDS011;5382;42.136;24.796;2023-05-13T13:01:20;2.05;;;1.52;;
10667;SDS011;5382;42.136;24.796;2023-05-13T13:03:47;2.70;;;1.67;;
10667;SDS011;5382;42.136;24.796;2023-05-13T13:06:14;3.22;;;1.67;;
10667;SDS011;5382;42.136;24.796;2023-05-13T13:08:41;3.22;;;1.60;;
10667;SDS011;5382;42.136;24.796;2023-05-13T13:11:08;3.70;;;1.50;;
10667;SDS011;5382;42.136;24.796;2023-05-13T13:13:38;3.38;;;1.80;;
10667;SDS011;5382;42.136;24.796;2023-05-13T13:16:07;2.75;;;1.40;;
10667;SDS011;5382;42.136;24.796;2023-05-13T13:18:34;2.20;;;1.52;;
10667;SDS011;5382;42.136;24.796;2023-05-13T13:21:01;3.47;;;1.60;;
10667;SDS011;5382;42.136;24.796;2023-05-13T13:23:29;3.70;;;1.70;;
10667;SDS011;5382;42.136;24.796;2023-05-13T13:25:56;2.42;;;1.65;;
10667;SDS011;5382;42.136;24.796;2023-05-13T13:28:23;3.17;;;1.38;;
10667;SDS011;5382;42.136;24.796;2023-05-13T13:30:50;1.80;;;1.45;;
10667;SDS011;5382;42.136;24.796;2023-05-13T13:33:18;4.72;;;1.58;;
10667;SDS011;5382;42.136;24.796;2023-05-13T13:35:46;2.50;;;1.65;;
10667;SDS011;5382;42.136;24.796;2023-05-13T13:38:13;2.30;;;2.10;;
10667;SDS011;5382;42.136;24.796;2023-05-13T13:40:40;2.35;;;1.70;;
10667;SDS011;5382;42.136;24.796;2023-05-13T13:43:07;2.40;;;2.20;;
10667;SDS011;5382;42.136;24.796;2023-05-13T13:45:34;2.92;;;1.90;;
10667;SDS011;5382;42.136;24.796;2023-05-13T13:48:01;2.70;;;1.77;;
10667;SDS011;5382;42.136;24.796;2023-05-13T13:50:29;27.98;;;3.88;;
10667;SDS011;5382;42.136;24.796;2023-05-13T13:52:56;6.53;;;2.45;;
10667;SDS011;5382;42.136;24.796;2023-05-13T13:55:23;4.88;;;2.20;;
10667;SDS011;5382;42.136;24.796;2023-05-13T13:57:50;9.80;;;2.70;;
10667;SDS011;5382;42.136;24.796;2023-05-13T14:00:17;3.20;;;2.05;;
10667;SDS011;5382;42.136;24.796;2023-05-13T14:02:44;3.70;;;1.90;;
10667;SDS011;5382;42.136;24.796;2023-05-13T14:05:11;4.63;;;1.98;;
10667;SDS011;5382;42.136;24.796;2023-05-13T14:07:39;1.80;;;1.60;;
10667;SDS011;5382;42.136;24.796;2023-05-13T14:10:06;3.45;;;1.42;;
10667;SDS011;5382;42.136;24.796;2023-05-13T14:12:34;5.88;;;1.80;;
10667;SDS011;5382;42.136;24.796;2023-05-13T14:15:01;5.25;;;1.73;;
10667;SDS011;5382;42.136;24.796;2023-05-13T14:17:28;4.47;;;2.03;;
10667;SDS011;5382;42.136;24.796;2023-05-13T14:19:55;3.63;;;1.80;;
10667;SDS011;5382;42.136;24.796;2023-05-13T14:22:22;4.63;;;1.90;;
10667;SDS011;5382;42.136;24.796;2023-05-13T14:24:50;3.65;;;1.40;;
10667;SDS011;5382;42.136;24.796;2023-05-13T14:27:18;3.13;;;1.65;;
10667;SDS011;5382;42.136;24.796;2023-05-13T14:29:45;2.78;;;2.13;;
10667;SDS011;5382;42.136;24.796;2023-05-13T14:32:13;4.57;;;1.98;;
10667;SDS011;5382;42.136;24.796;2023-05-13T14:34:39;2.53;;;1.70;;
10667;SDS011;5382;42.136;24.796;2023-05-13T14:37:06;3.33;;;1.77;;
10667;SDS011;5382;42.136;24.796;2023-05-13T14:39:33;2.47;;;1.67;;
10667;SDS011;5382;42.136;24.796;2023-05-13T14:42:02;3.00;;;1.60;;
10667;SDS011;5382;42.136;24.796;2023-05-13T14:44:29;3.47;;;1.58;;
10667;SDS011;5382;42.136;24.796;2023-05-13T14:46:55;2.83;;;1.50;;
10667;SDS011;5382;42.136;24.796;2023-05-13T14:49:22;3.15;;;1.90;;
10667;SDS011;5382;42.136;24.796;2023-05-13T14:51:49;3.00;;;2.00;;